Time;durP1;ratioP1;P1;durP2;ratioP2;P2;SDS_P1;SDS_P2;PMS_P1;PMS_P2;Temp;Humidity;BMP_temperature;BMP_pressure;BME280_temperature;BME280_humidity;BME280_pressure;Samples;Min_cycle;Max_cycle;Signal;HPM_P1;HPM_P2
2022/09/10 00:02:03;;;;;;;6.88;5.60;;;;;;;18.64;73.32;93437.94;5069586;28;20028;-38
2022/09/10 00:04:29;;;;;;;8.43;6.28;;;;;;;18.59;73.65;93430.59;5069619;28;20028;-39
2022/09/10 00:06:55;;;;;;;7.90;5.78;;;;;;;18.58;73.21;93424.28;5069568;28;20466;-39
2022/09/10 00:09:20;;;;;;;6.70;5.35;;;;;;;18.48;73.79;93420.09;5069517;28;20476;-39
2022/09/10 00:11:46;;;;;;;7.20;5.78;;;;;;;18.55;73.62;93428.28;5068360;28;20032;-42
2022/09/10 00:14:17;;;;;;;10.32;7.40;;;;;;;18.56;73.32;93420.66;5066698;28;20094;-42
2022/09/10 00:16:43;;;;;;;13.45;8.60;;;;;;;18.53;73.20;93416.97;5068979;28;20024;-43
2022/09/10 00:19:08;;;;;;;7.85;6.15;;;;;;;18.42;73.69;93425.28;5069508;28;20024;-42
2022/09/10 00:21:34;;;;;;;8.82;6.55;;;;;;;18.36;73.73;93424.91;5069171;28;20107;-42
2022/09/10 00:24:01;;;;;;;8.23;6.10;;;;;;;18.36;73.88;93422.84;5069303;28;20025;-43
2022/09/10 00:26:37;;;;;;;6.90;5.50;;;;;;;18.24;74.09;93422.03;5069503;28;20074;-42
2022/09/10 00:29:03;;;;;;;7.70;5.80;;;;;;;18.17;74.75;93422.97;5061801;28;20029;-44
2022/09/10 00:31:29;;;;;;;15.10;8.63;;;;;;;18.10;74.73;93423.91;5069486;28;20032;-42
2022/09/10 00:33:56;;;;;;;11.40;7.55;;;;;;;17.90;75.67;93423.31;5067641;28;20021;-42
2022/09/10 00:36:24;;;;;;;10.65;8.60;;;;;;;17.99;75.19;93413.41;5069092;28;20769;-42
2022/09/10 00:38:53;;;;;;;11.23;6.90;;;;;;;17.88;75.52;93412.00;5069184;28;20056;-44
2022/09/10 00:41:21;;;;;;;8.77;6.50;;;;;;;17.93;75.29;93410.94;5068998;28;20032;-43
2022/09/10 00:44:04;;;;;;;9.98;6.93;;;;;;;17.85;75.25;93415.25;5069339;28;20483;-42
2022/09/10 00:46:58;;;;;;;8.57;6.60;;;;;;;17.79;75.36;93410.00;5068147;28;20556;-42
2022/09/10 00:49:32;;;;;;;7.38;6.10;;;;;;;17.76;75.14;93400.00;5063191;28;20048;-43
2022/09/10 00:51:58;;;;;;;7.05;6.22;;;;;;;17.78;75.12;93408.53;5065277;28;20025;-43
2022/09/10 00:54:25;;;;;;;8.27;6.38;;;;;;;17.72;75.19;93416.50;5068055;28;20020;-43
2022/09/10 00:56:56;;;;;;;8.15;5.53;;;;;;;17.50;75.65;93412.22;5068848;28;20021;-42
2022/09/10 00:59:22;;;;;;;10.73;5.85;;;;;;;17.56;75.74;93420.28;5068858;28;20024;-43
2022/09/10 01:01:48;;;;;;;5.97;5.30;;;;;;;17.59;75.68;93421.88;5069427;28;20631;-43
2022/09/10 01:04:14;;;;;;;8.70;6.07;;;;;;;17.52;75.48;93409.56;5070669;28;20043;-42
2022/09/10 01:06:40;;;;;;;7.20;5.45;;;;;;;17.53;75.79;93424.97;5072305;28;20020;-43
2022/09/10 01:09:07;;;;;;;6.68;5.35;;;;;;;17.52;75.76;93436.75;5071291;28;20077;-42
2022/09/10 01:24:31;;;;;;;7.38;5.05;;;;;;;17.94;74.08;93425.63;5015495;28;21936;-43
2022/09/10 01:27:12;;;;;;;8.45;5.15;;;;;;;17.81;74.50;93418.50;5000760;28;20037;-43
2022/09/10 01:29:40;;;;;;;6.35;4.80;;;;;;;17.69;75.16;93414.91;4997031;28;20023;-41
2022/09/10 01:32:13;;;;;;;6.35;5.10;;;;;;;17.66;75.00;93410.53;4997064;28;20106;-44
2022/09/10 01:34:54;;;;;;;6.78;5.78;;;;;;;17.53;75.23;93404.72;4995750;28;20058;-43
2022/09/10 01:37:38;;;;;;;6.63;5.30;;;;;;;17.48;75.13;93409.25;4997902;28;20026;-43
2022/09/10 01:40:05;;;;;;;7.97;4.75;;;;;;;17.41;75.55;93415.78;4991082;28;20116;-42
2022/09/10 01:42:31;;;;;;;9.63;6.22;;;;;;;17.34;76.17;93416.69;5001957;28;20019;-41
2022/09/10 01:44:57;;;;;;;9.65;5.45;;;;;;;17.32;76.17;93410.97;4995673;28;20026;-41
2022/09/10 01:47:58;;;;;;;6.82;5.35;;;;;;;17.35;76.19;93396.53;4994020;28;20077;-41
2022/09/10 01:50:38;;;;;;;13.75;5.63;;;;;;;17.19;77.23;93414.97;5003468;28;20022;-41
2022/09/10 01:53:06;;;;;;;6.90;5.50;;;;;;;17.22;77.08;93405.41;5004875;28;20157;-41
2022/09/10 01:55:57;;;;;;;6.93;5.85;;;;;;;17.21;76.66;93386.47;5002440;28;20177;-42
2022/09/10 01:58:39;;;;;;;6.43;5.35;;;;;;;17.16;76.47;93373.56;4996736;28;20014;-41
2022/09/10 02:01:23;;;;;;;6.00;4.80;;;;;;;17.12;76.02;93373.28;4994811;28;20117;-41
2022/09/10 02:03:51;;;;;;;6.63;5.20;;;;;;;17.09;76.13;93382.84;4996533;28;20054;-41
2022/09/10 02:06:20;;;;;;;8.95;5.20;;;;;;;16.96;76.77;93395.22;4995932;28;20411;-41
2022/09/10 02:08:48;;;;;;;7.72;5.00;;;;;;;17.00;77.01;93397.56;4990369;28;20431;-41
2022/09/10 02:11:13;;;;;;;8.57;6.78;;;;;;;17.00;77.14;93397.56;4988701;28;20037;-41
2022/09/10 02:13:41;;;;;;;9.43;6.80;;;;;;;17.04;77.06;93411.81;5006226;28;20030;-42
2022/09/10 02:16:24;;;;;;;6.95;6.15;;;;;;;17.03;77.07;93401.94;5021441;28;20483;-41
2022/09/10 02:18:50;;;;;;;7.35;6.40;;;;;;;16.82;77.82;93394.25;5006048;28;20026;-41
2022/09/10 02:21:16;;;;;;;7.53;6.28;;;;;;;16.76;78.21;93402.19;5013943;28;20037;-41
2022/09/10 02:23:45;;;;;;;8.68;6.65;;;;;;;16.88;78.41;93402.28;4999007;28;20051;-41
2022/09/10 02:26:13;;;;;;;9.02;7.30;;;;;;;16.88;78.06;93416.25;4992349;28;20061;-41
2022/09/10 02:28:39;;;;;;;6.18;5.25;;;;;;;16.87;78.79;93414.78;5007500;28;20117;-44
2022/09/10 02:31:05;;;;;;;9.52;8.63;;;;;;;16.92;78.28;93424.88;5011820;28;20026;-43
2022/09/10 02:33:31;;;;;;;6.70;5.95;;;;;;;16.99;77.67;93424.00;5011065;28;20014;-43
2022/09/10 02:35:57;;;;;;;7.38;6.22;;;;;;;16.88;77.90;93411.41;5011051;28;20054;-43
2022/09/10 02:38:22;;;;;;;8.95;5.80;;;;;;;16.88;78.24;93419.03;5000211;28;20023;-43
2022/09/10 02:40:48;;;;;;;6.88;5.95;;;;;;;16.84;78.60;93424.31;4991626;28;20450;-43
2022/09/10 02:43:15;;;;;;;5.97;5.43;;;;;;;16.85;78.47;93420.94;4991593;28;20030;-41
2022/09/10 02:45:40;;;;;;;7.93;6.80;;;;;;;16.73;79.13;93420.09;4991389;28;20056;-41
2022/09/10 02:48:06;;;;;;;6.97;5.60;;;;;;;16.85;78.33;93418.16;4991491;28;20054;-41
2022/09/10 02:50:34;;;;;;;7.40;5.80;;;;;;;16.98;77.59;93405.81;4991513;28;20026;-41
2022/09/10 02:53:00;;;;;;;7.43;5.13;;;;;;;17.01;77.47;93401.81;4993002;28;20392;-41
2022/09/10 02:55:26;;;;;;;7.85;5.63;;;;;;;17.03;77.59;93399.16;4993004;28;20101;-41
2022/09/10 02:57:53;;;;;;;8.35;6.00;;;;;;;16.94;78.23;93402.72;4992823;28;20093;-41
2022/09/10 03:00:19;;;;;;;8.07;5.82;;;;;;;16.84;78.82;93408.34;4993283;28;20038;-41
2022/09/10 03:02:49;;;;;;;6.30;5.72;;;;;;;16.87;78.52;93403.63;4992981;28;20050;-42
2022/09/10 03:05:15;;;;;;;6.50;5.38;;;;;;;17.07;77.56;93416.19;4992954;28;20076;-42
2022/09/10 03:07:41;;;;;;;7.80;6.22;;;;;;;17.10;77.32;93410.16;4992190;28;20073;-41
2022/09/10 03:10:07;;;;;;;9.35;5.78;;;;;;;17.16;77.28;93415.41;4992860;28;20034;-41
2022/09/10 03:12:32;;;;;;;7.82;5.30;;;;;;;16.97;77.45;93404.31;4979484;28;20037;-41
2022/09/10 03:14:58;;;;;;;6.65;5.10;;;;;;;17.09;77.68;93419.84;4972621;28;20031;-41
2022/09/10 03:17:24;;;;;;;7.75;6.25;;;;;;;17.10;77.77;93426.16;4973604;28;20022;-41
2022/09/10 03:19:50;;;;;;;5.70;5.07;;;;;;;17.19;76.95;93426.16;4974079;28;20118;-41
2022/09/10 03:22:15;;;;;;;6.72;5.25;;;;;;;17.11;77.64;93417.19;4992626;28;20126;-41
2022/09/10 03:24:42;;;;;;;6.53;5.50;;;;;;;17.14;77.28;93427.19;4992888;28;20121;-42
2022/09/10 03:27:07;;;;;;;6.45;5.75;;;;;;;17.11;77.50;93417.19;4992489;28;20030;-43
2022/09/10 03:29:33;;;;;;;6.68;6.03;;;;;;;17.13;77.50;93411.75;4997783;28;20030;-42
2022/09/10 03:31:58;;;;;;;7.80;5.57;;;;;;;17.11;77.83;93410.88;5011990;28;20040;-43
2022/09/10 03:34:24;;;;;;;6.72;5.68;;;;;;;17.16;77.63;93412.63;5012137;28;20090;-44
2022/09/10 03:36:50;;;;;;;7.30;6.30;;;;;;;17.17;78.07;93409.22;5011549;28;20033;-43
2022/09/10 03:39:17;;;;;;;7.68;6.00;;;;;;;17.14;78.41;93407.66;5012152;28;20030;-43
2022/09/10 03:41:44;;;;;;;7.97;5.43;;;;;;;17.12;78.51;93403.97;5012215;28;20021;-43
2022/09/10 03:44:10;;;;;;;6.20;5.47;;;;;;;17.11;78.34;93403.25;5003351;28;20411;-44
2022/09/10 03:46:36;;;;;;;10.73;5.70;;;;;;;17.15;78.30;93400.72;4992490;28;20110;-43
2022/09/10 03:49:06;;;;;;;8.80;5.47;;;;;;;17.18;77.98;93404.41;4992351;28;20034;-43
2022/09/10 03:51:32;;;;;;;;;;;;;;;17.32;77.09;93399.78;4992631;28;20022;-44
2022/09/10 03:53:59;;;;;;;8.27;5.82;;;;;;;17.27;77.22;93400.84;4992088;28;20438;-41
2022/09/10 03:56:25;;;;;;;10.38;6.45;;;;;;;17.22;77.73;93387.94;4991934;28;20030;-39
2022/09/10 03:58:51;;;;;;;7.47;5.78;;;;;;;17.28;77.43;93402.31;4992017;28;20079;-42
2022/09/10 04:01:17;;;;;;;9.10;5.47;;;;;;;17.23;78.16;93400.56;4991447;28;20030;-42
2022/09/10 04:03:42;;;;;;;6.82;5.50;;;;;;;17.26;77.85;93402.88;4976914;28;20150;-41
2022/09/10 04:06:12;;;;;;;5.85;5.15;;;;;;;17.27;77.71;93412.75;4972720;28;20491;-41
2022/09/10 04:08:38;;;;;;;5.93;4.90;;;;;;;17.25;78.42;93409.06;4972368;28;20019;-42
2022/09/10 04:11:04;;;;;;;6.28;5.45;;;;;;;17.28;78.03;93402.31;4971865;28;20034;-41
2022/09/10 04:13:30;;;;;;;5.95;5.00;;;;;;;17.22;77.55;93419.34;4972191;28;20170;-40
2022/09/10 04:35:26;;;;;;;6.50;5.85;;;;;;;18.51;72.63;93374.91;5087163;28;20625;-41
2022/09/10 04:37:51;;;;;;;5.82;5.22;;;;;;;18.40;73.47;93372.03;5087629;28;20064;-40
2022/09/10 04:40:17;;;;;;;6.93;5.97;;;;;;;18.15;74.25;93378.88;5087199;28;20024;-43
2022/09/10 04:42:42;;;;;;;7.15;5.35;;;;;;;18.01;75.36;93380.75;5087216;28;20025;-41
2022/09/10 04:45:08;;;;;;;8.15;5.72;;;;;;;17.69;76.19;93381.41;5087103;28;20095;-42
2022/09/10 04:47:34;;;;;;;6.18;5.35;;;;;;;17.90;75.28;93381.41;5087040;28;20497;-40
2022/09/10 04:50:00;;;;;;;6.35;5.47;;;;;;;18.01;75.33;93388.41;5094749;28;20073;-40
2022/09/10 04:52:25;;;;;;;7.35;6.00;;;;;;;17.99;75.94;93394.59;5107374;28;20114;-40
2022/09/10 04:54:51;;;;;;;7.85;5.80;;;;;;;17.97;76.16;93380.50;5089218;28;20031;-41
2022/09/10 04:57:16;;;;;;;8.27;5.65;;;;;;;17.98;76.22;93401.50;5089007;28;20028;-41
2022/09/10 04:59:42;;;;;;;16.88;9.27;;;;;;;18.05;76.31;93406.16;5087015;28;20051;-42
2022/09/10 05:02:08;;;;;;;16.08;8.57;;;;;;;18.06;74.94;93404.81;5087085;28;20021;-42
2022/09/10 05:04:34;;;;;;;7.25;5.65;;;;;;;18.08;72.74;93413.31;5087137;28;20481;-42
2022/09/10 05:07:00;;;;;;;4.82;4.35;;;;;;;18.27;71.82;93409.66;5086795;28;20028;-42
2022/09/10 05:09:29;;;;;;;10.07;6.68;;;;;;;18.45;73.17;93413.66;5086686;28;20024;-42
2022/09/10 05:11:55;;;;;;;6.85;5.53;;;;;;;18.62;74.15;93423.81;5087090;28;20027;-42
2022/09/10 05:14:22;;;;;;;8.18;5.90;;;;;;;18.63;74.47;93431.59;5086609;28;20033;-42
2022/09/10 05:16:47;;;;;;;8.43;5.40;;;;;;;18.67;74.64;93426.25;5086647;28;20078;-42
2022/09/10 05:19:16;;;;;;;5.90;5.20;;;;;;;18.69;73.68;93417.28;5086545;28;20024;-42
2022/09/10 05:21:42;;;;;;;;;;;;;;;18.68;73.93;93407.41;5087076;28;20020;-42
2022/09/10 05:24:08;;;;;;;6.40;5.13;;;;;;;18.69;73.12;93392.13;5077990;28;19915;-42
2022/09/10 05:26:33;;;;;;;7.47;4.95;;;;;;;18.62;73.91;93398.66;5059804;28;20045;-43
2022/09/10 05:28:59;;;;;;;6.65;4.90;;;;;;;18.72;75.08;93407.66;5064184;28;20028;-43
2022/09/10 05:31:24;;;;;;;7.35;4.88;;;;;;;18.75;74.55;93412.06;5072400;28;20033;-42
2022/09/10 05:33:50;;;;;;;6.38;5.05;;;;;;;18.81;74.80;93424.38;5072574;28;20050;-42
2022/09/10 05:36:15;;;;;;;135.20;55.75;;;;;;;18.70;74.71;93425.06;5072668;28;20086;-46
2022/09/10 05:38:41;;;;;;;98.03;43.72;;;;;;;18.84;73.24;93414.75;5073002;28;20024;-46
2022/09/10 05:41:10;;;;;;;36.53;19.48;;;;;;;19.00;72.00;93405.91;5072949;28;20025;-46
2022/09/10 05:43:35;;;;;;;14.93;8.07;;;;;;;18.98;70.77;93397.41;5073001;28;20515;-42
2022/09/10 05:46:02;;;;;;;14.35;8.20;;;;;;;19.04;71.78;93400.56;5072587;28;20017;-42
2022/09/10 05:48:27;;;;;;;8.98;5.72;;;;;;;19.09;69.62;93403.03;5072629;28;20025;-42
2022/09/10 05:50:54;;;;;;;9.18;3.83;;;;;;;19.16;67.30;93404.88;5072824;28;20125;-42
2022/09/10 05:53:20;;;;;;;11.60;8.15;;;;;;;19.26;67.05;93425.06;5072413;28;20031;-42
2022/09/10 05:55:46;;;;;;;15.43;8.57;;;;;;;19.33;68.50;93434.56;5072604;28;20052;-42
2022/09/10 05:58:12;;;;;;;5.72;3.95;;;;;;;19.34;67.70;93433.25;5072347;28;20463;-42
2022/09/10 06:00:38;;;;;;;3.80;3.50;;;;;;;19.55;66.77;93422.69;5072278;28;20746;-42
2022/09/10 06:03:04;;;;;;;4.10;3.70;;;;;;;19.64;66.56;93416.22;5072243;28;20024;-42
2022/09/10 06:05:30;;;;;;;5.35;4.70;;;;;;;19.67;68.55;93406.59;5072535;28;20074;-42
2022/09/10 06:07:55;;;;;;;8.30;5.68;;;;;;;19.75;69.82;93411.25;5071125;28;20020;-42
2022/09/10 06:10:21;;;;;;;8.80;5.95;;;;;;;19.81;69.96;93417.19;5072370;28;20032;-42
2022/09/10 06:12:50;;;;;;;8.07;5.38;;;;;;;19.89;69.00;93407.19;5072466;28;20028;-42
2022/09/10 06:15:17;;;;;;;8.73;5.30;;;;;;;19.93;69.05;93409.50;5071897;28;20123;-42
2022/09/10 06:17:42;;;;;;;5.45;4.88;;;;;;;20.02;68.51;93414.97;5072067;28;20111;-41
2022/09/10 06:20:08;;;;;;;5.43;4.43;;;;;;;20.11;69.13;93405.69;5072204;28;20115;-41
2022/09/10 06:22:34;;;;;;;6.28;5.13;;;;;;;20.12;69.76;93400.81;5071946;28;20611;-41
2022/09/10 06:25:00;;;;;;;5.80;4.80;;;;;;;20.16;70.48;93409.47;5056491;28;20029;-41
2022/09/10 06:27:25;;;;;;;5.45;4.30;;;;;;;20.18;70.45;93420.78;5052047;28;20025;-40
2022/09/10 06:29:51;;;;;;;7.13;5.32;;;;;;;20.19;70.34;93417.38;5071226;28;20489;-42
2022/09/10 06:32:16;;;;;;;10.93;7.88;;;;;;;20.34;70.07;93425.28;5072721;28;20024;-42
2022/09/10 06:34:42;;;;;;;12.23;6.93;;;;;;;20.46;68.33;93410.50;5076819;28;20048;-43
2022/09/10 06:37:07;;;;;;;11.57;8.13;;;;;;;20.75;65.56;93413.53;5068293;28;20024;-43
2022/09/10 06:39:33;;;;;;;8.88;7.03;;;;;;;20.98;66.28;93402.94;5081172;28;20448;-43
2022/09/10 06:41:58;;;;;;;11.18;5.88;;;;;;;21.19;64.66;93398.44;5071533;28;20237;-43
2022/09/10 06:44:25;;;;;;;7.82;5.38;;;;;;;21.28;63.83;93401.06;5071744;28;20020;-43
2022/09/10 06:46:53;;;;;;;8.52;5.63;;;;;;;21.36;63.49;93389.53;5071495;28;20421;-44
2022/09/10 06:49:18;;;;;;;6.95;4.93;;;;;;;21.41;63.54;93386.31;5071573;28;20029;-43
2022/09/10 06:51:44;;;;;;;8.32;5.43;;;;;;;21.56;62.78;93382.16;5071336;28;20394;-44
2022/09/10 06:54:09;;;;;;;5.60;4.35;;;;;;;21.89;61.96;93368.47;5071205;28;20047;-41
2022/09/10 06:56:37;;;;;;;5.40;3.90;;;;;;;22.28;60.54;93369.06;5062846;28;20113;-41
2022/09/10 06:59:02;;;;;;;5.32;4.78;;;;;;;22.53;58.61;93377.31;5071446;28;20104;-41
2022/09/10 07:01:28;;;;;;;5.45;4.05;;;;;;;22.60;58.54;93379.09;5070950;28;20154;-40
2022/09/10 07:03:58;;;;;;;4.30;3.88;;;;;;;22.47;58.25;93379.84;5062914;28;20395;-44
2022/09/10 07:06:24;;;;;;;4.22;3.50;;;;;;;22.42;58.66;93363.38;5060599;28;20024;-45
2022/09/10 07:08:57;;;;;;;9.98;5.78;;;;;;;22.57;59.00;93379.59;5070698;28;20528;-41
2022/09/10 07:11:24;;;;;;;30.70;13.75;;;;;;;22.73;58.51;93376.84;5070903;28;20024;-43
2022/09/10 07:13:52;;;;;;;25.48;10.57;;;;;;;23.05;57.34;93389.66;5070773;28;20619;-41
2022/09/10 07:16:19;;;;;;;9.80;5.15;;;;;;;23.99;54.35;93388.34;5076224;28;20048;-42
2022/09/10 07:18:53;;;;;;;3.13;2.83;;;;;;;24.92;50.69;93386.59;5067888;28;20021;-41
2022/09/10 07:21:20;;;;;;;6.00;3.65;;;;;;;25.32;47.87;93385.34;5060168;28;20028;-41
2022/09/10 07:23:50;;;;;;;3.97;3.60;;;;;;;25.65;47.37;93383.78;5064109;28;20029;-41
2022/09/10 07:26:18;;;;;;;3.03;2.80;;;;;;;26.28;46.17;93381.84;5070543;28;20032;-41
2022/09/10 07:28:44;;;;;;;3.08;2.40;;;;;;;27.04;41.52;93392.94;5070655;28;20024;-41
2022/09/10 07:31:27;;;;;;;3.00;2.53;;;;;;;27.54;41.84;93402.31;5062112;28;20036;-42
2022/09/10 07:33:54;;;;;;;3.20;2.28;;;;;;;27.58;40.34;93396.75;5064841;28;20051;-41
2022/09/10 07:36:20;;;;;;;3.30;2.47;;;;;;;27.15;42.18;93407.41;5062735;28;20020;-42
2022/09/10 07:38:46;;;;;;;3.15;2.50;;;;;;;27.72;40.96;93402.13;5069292;28;20097;-42
2022/09/10 07:41:13;;;;;;;3.22;2.38;;;;;;;28.12;40.39;93391.97;5059122;28;20020;-44
2022/09/10 07:43:39;;;;;;;2.65;2.42;;;;;;;28.83;40.78;93400.25;5065998;28;20505;-43
2022/09/10 07:46:05;;;;;;;11.35;2.47;;;;;;;30.18;39.25;93402.69;5070863;28;20024;-44
2022/09/10 07:48:32;;;;;;;1.98;1.77;;;;;;;30.61;36.03;93405.72;5068723;28;20028;-42
2022/09/10 07:51:04;;;;;;;2.25;2.05;;;;;;;30.92;35.50;93397.72;5050359;28;20021;-44
2022/09/10 07:53:30;;;;;;;2.55;2.35;;;;;;;31.11;34.87;93397.34;5068486;28;20134;-43
2022/09/10 07:56:00;;;;;;;2.72;2.53;;;;;;;31.33;34.33;93396.97;5070386;28;20021;-40
2022/09/10 07:58:28;;;;;;;3.10;2.00;;;;;;;31.87;32.58;93397.09;5070496;28;20032;-39
2022/09/10 08:00:53;;;;;;;2.65;2.22;;;;;;;31.70;33.56;93393.28;5069407;28;20043;-42
2022/09/10 08:03:20;;;;;;;4.70;2.58;;;;;;;32.05;32.54;93400.94;5062541;28;20493;-43
2022/09/10 08:05:47;;;;;;;2.10;1.90;;;;;;;32.88;32.49;93396.91;5057754;28;20587;-44
2022/09/10 08:08:13;;;;;;;2.47;2.03;;;;;;;33.42;31.79;93396.69;5058491;28;20021;-42
2022/09/10 08:10:39;;;;;;;3.53;2.30;;;;;;;33.16;30.15;93399.34;5057093;28;20032;-42
2022/09/10 08:13:04;;;;;;;3.00;2.72;;;;;;;33.77;30.79;93397.69;5060152;28;20024;-43
2022/09/10 08:15:30;;;;;;;1.85;1.70;;;;;;;33.66;29.78;93396.16;5056962;28;20028;-42
2022/09/10 08:17:58;;;;;;;2.10;1.88;;;;;;;34.15;30.32;93397.22;5060589;28;20614;-44
2022/09/10 08:20:25;;;;;;;2.53;1.95;;;;;;;34.58;28.34;93389.53;5059072;28;20025;-45
2022/09/10 08:22:51;;;;;;;2.78;2.22;;;;;;;33.74;28.96;93389.78;5059504;28;20051;-43
2022/09/10 08:25:18;;;;;;;2.35;2.15;;;;;;;34.41;28.55;93396.59;5057439;28;20102;-44
2022/09/10 08:27:44;;;;;;;3.80;2.90;;;;;;;34.23;28.86;93395.09;5059101;28;20150;-42
2022/09/10 08:30:11;;;;;;;2.13;1.95;;;;;;;34.98;28.78;93398.94;5059556;28;20585;-42
2022/09/10 08:32:36;;;;;;;3.03;2.35;;;;;;;34.77;28.47;93397.47;5059788;28;20477;-43
2022/09/10 08:35:03;;;;;;;4.35;2.35;;;;;;;34.04;29.54;93387.13;5057800;28;20050;-42
2022/09/10 08:37:29;;;;;;;2.63;2.42;;;;;;;34.53;29.61;93376.59;5058002;28;20035;-42
2022/09/10 08:39:55;;;;;;;3.03;2.63;;;;;;;34.26;28.52;93387.94;5061645;28;20204;-42
2022/09/10 08:42:25;;;;;;;3.17;2.63;;;;;;;33.50;29.45;93388.22;5064636;28;20107;-42
2022/09/10 08:45:13;;;;;;;2.40;2.15;;;;;;;33.47;29.45;93365.94;5041715;28;20024;-42
2022/09/10 08:47:39;;;;;;;2.85;2.15;;;;;;;33.61;30.35;93377.53;5061939;28;20029;-43
2022/09/10 08:50:16;;;;;;;2.30;2.20;;;;;;;34.00;30.63;93382.03;5058043;28;20540;-43
2022/09/10 08:52:49;;;;;;;3.05;2.53;;;;;;;35.21;28.65;93370.28;5059103;28;20411;-43
2022/09/10 08:55:22;;;;;;;5.50;2.40;;;;;;;35.66;27.66;93371.72;5057924;28;20036;-44
2022/09/10 08:58:05;;;;;;;2.30;2.10;;;;;;;36.33;26.85;93363.66;5057628;28;20124;-44
2022/09/10 09:00:33;;;;;;;3.00;2.60;;;;;;;36.71;26.40;93360.63;5044785;28;20031;-45
2022/09/10 09:03:01;;;;;;;3.47;2.30;;;;;;;37.59;26.33;93358.59;5043305;28;20405;-45
2022/09/10 09:05:27;;;;;;;;;;;;;;;38.46;24.46;93359.16;5064605;28;20021;-47
2022/09/10 09:07:53;;;;;;;10.43;2.63;;;;;;;39.33;24.17;93352.22;5047317;28;19923;-46
2022/09/10 09:10:24;;;;;;;3.20;2.20;;;;;;;39.93;22.76;93351.19;5062978;28;20017;-45
2022/09/10 09:13:37;;;;;;;3.33;2.10;;;;;;;41.02;21.59;93351.91;5061745;28;20025;-44
2022/09/10 09:16:28;;;;;;;2.50;2.00;;;;;;;41.01;21.40;93352.69;4986162;28;20173;-46
2022/09/10 09:18:56;;;;;;;2.00;1.75;;;;;;;40.48;20.75;93347.31;5058125;28;20112;-43
2022/09/10 09:21:51;;;;;;;2.67;2.10;;;;;;;39.34;21.89;93353.63;5065066;28;20111;-45
2022/09/10 09:24:21;;;;;;;2.50;2.25;;;;;;;38.23;23.46;93342.81;5054507;28;20074;-45
2022/09/10 09:26:48;;;;;;;2.70;2.00;;;;;;;38.93;23.82;93338.34;5057150;28;20068;-45
2022/09/10 09:29:17;;;;;;;4.85;2.33;;;;;;;38.59;23.42;93334.47;5064403;28;20028;-47
2022/09/10 09:31:49;;;;;;;3.72;2.15;;;;;;;37.33;24.76;93330.00;5046000;28;20033;-43
2022/09/10 09:34:19;;;;;;;2.20;2.00;;;;;;;37.13;25.42;93328.00;5059486;28;20152;-45
2022/09/10 09:36:48;;;;;;;3.22;2.53;;;;;;;36.07;26.10;93332.88;5053324;28;20154;-43
2022/09/10 09:39:38;;;;;;;3.22;2.38;;;;;;;35.25;27.76;93319.34;5065937;28;20497;-44
2022/09/10 09:42:28;;;;;;;3.78;2.45;;;;;;;35.10;27.83;93320.06;5018265;28;20032;-44
2022/09/10 09:45:09;;;;;;;2.90;2.58;;;;;;;33.80;29.48;93321.06;5065082;28;20458;-43
2022/09/10 09:47:34;;;;;;;3.70;2.85;;;;;;;32.93;31.27;93320.44;5043681;28;20136;-43
2022/09/10 09:50:00;;;;;;;3.20;2.63;;;;;;;31.95;32.60;93325.81;5061079;28;20115;-42
2022/09/10 09:52:30;;;;;;;2.78;2.53;;;;;;;31.28;34.51;93324.16;5048058;28;20032;-42
2022/09/10 09:55:00;;;;;;;3.25;2.92;;;;;;;30.53;35.50;93314.38;5043958;28;20043;-42
2022/09/10 09:57:26;;;;;;;2.80;2.60;;;;;;;30.11;37.05;93307.88;5045389;28;20085;-42
2022/09/10 09:59:52;;;;;;;3.30;2.85;;;;;;;29.70;37.87;93326.25;5067738;28;20033;-43
2022/09/10 10:02:20;;;;;;;2.90;2.65;;;;;;;29.44;38.92;93319.25;5062935;28;20028;-43
2022/09/10 10:05:04;;;;;;;5.22;2.85;;;;;;;29.09;39.43;93312.78;5070417;28;20032;-42
2022/09/10 10:07:31;;;;;;;3.50;2.83;;;;;;;28.65;40.15;93279.75;5068286;28;20128;-43
2022/09/10 10:09:59;;;;;;;4.43;3.15;;;;;;;28.71;39.96;93309.03;5052225;28;20067;-43
2022/09/10 10:12:30;;;;;;;26.15;4.88;;;;;;;28.49;42.24;93311.28;5067996;28;20064;-42
2022/09/10 10:14:56;;;;;;;5.07;3.53;;;;;;;28.33;41.17;93303.09;5065258;28;20060;-42
2022/09/10 10:17:37;;;;;;;3.67;3.13;;;;;;;28.34;41.44;93296.03;5056578;28;20052;-43
2022/09/10 10:20:14;;;;;;;5.53;3.53;;;;;;;28.42;42.58;93286.97;5050507;28;20035;-43
2022/09/10 10:22:44;;;;;;;5.13;2.83;;;;;;;28.47;40.82;93291.38;5056625;28;20119;-47
2022/09/10 10:25:37;;;;;;;4.28;3.25;;;;;;;28.39;41.30;93291.88;5050584;28;20028;-44
2022/09/10 10:28:09;;;;;;;3.40;3.10;;;;;;;28.34;42.16;93287.50;5058957;28;20483;-43
2022/09/10 10:30:34;;;;;;;3.83;3.25;;;;;;;28.58;42.41;93283.84;5048582;28;20035;-43
2022/09/10 10:33:01;;;;;;;2.92;2.67;;;;;;;28.60;40.32;93278.22;5068666;28;20044;-43
2022/09/10 10:35:34;;;;;;;3.60;2.80;;;;;;;28.79;40.88;93269.44;5062607;28;20501;-44
2022/09/10 10:38:24;;;;;;;3.80;3.22;;;;;;;28.93;41.37;93275.47;5054157;28;20512;-42
2022/09/10 10:41:10;;;;;;;3.05;2.75;;;;;;;29.00;41.24;93274.19;5065626;28;20103;-43
2022/09/10 10:43:53;;;;;;;3.03;2.72;;;;;;;28.89;41.44;93271.81;5067708;28;20041;-43
2022/09/10 10:46:20;;;;;;;3.88;2.97;;;;;;;29.10;40.24;93277.28;5066982;28;20653;-42
2022/09/10 10:49:15;;;;;;;3.80;3.30;;;;;;;29.37;39.67;93270.06;5069368;28;20024;-42
2022/09/10 10:51:40;;;;;;;3.97;3.05;;;;;;;29.81;40.44;93268.16;5066236;28;20036;-42
2022/09/10 10:54:29;;;;;;;3.95;2.90;;;;;;;29.78;39.09;93277.31;5067595;28;20127;-43
2022/09/10 10:57:20;;;;;;;5.00;3.00;;;;;;;29.54;38.99;93285.34;5046937;28;20040;-43
2022/09/10 11:00:00;;;;;;;4.00;3.55;;;;;;;29.73;40.25;93275.78;5064887;28;20048;-45
2022/09/10 11:02:28;;;;;;;3.33;2.55;;;;;;;29.16;39.70;93273.88;5071635;28;20032;-43
2022/09/10 11:04:54;;;;;;;5.10;3.05;;;;;;;29.22;39.62;93265.47;5071093;28;20024;-43
2022/09/10 11:07:19;;;;;;;3.30;3.00;;;;;;;29.41;40.75;93272.28;5053111;28;20044;-42
2022/09/10 11:10:05;;;;;;;4.25;2.80;;;;;;;30.27;39.72;93271.16;5070693;28;20115;-42
2022/09/10 11:12:34;;;;;;;4.82;2.55;;;;;;;31.61;36.93;93256.84;5010667;28;20049;-44
2022/09/10 11:15:30;;;;;;;5.25;2.92;;;;;;;32.85;35.85;93243.16;5069073;28;20044;-45
2022/09/10 11:18:02;;;;;;;7.55;3.33;;;;;;;33.66;33.11;93255.16;5036718;28;20104;-44
2022/09/10 11:20:31;;;;;;;4.03;3.30;;;;;;;33.96;32.37;93232.34;5034643;28;20035;-44
2022/09/10 11:23:13;;;;;;;4.03;2.70;;;;;;;34.67;31.43;93241.84;5069032;28;20505;-43
2022/09/10 11:25:53;;;;;;;4.13;2.97;;;;;;;35.01;30.50;93239.72;5065605;28;20035;-44
2022/09/10 11:28:23;;;;;;;6.50;3.88;;;;;;;34.50;31.46;93234.63;5068492;28;20021;-43
2022/09/10 11:30:58;;;;;;;3.97;2.90;;;;;;;34.81;30.56;93233.97;5050523;28;20103;-45
2022/09/10 11:33:32;;;;;;;3.88;2.88;;;;;;;34.70;29.17;93244.00;5049826;28;20048;-43
2022/09/10 11:36:23;;;;;;;3.42;2.85;;;;;;;34.79;30.10;93233.97;5044754;28;20413;-42
2022/09/10 11:39:05;;;;;;;3.78;2.72;;;;;;;34.97;29.47;93218.88;5041892;28;20498;-42
2022/09/10 11:41:32;;;;;;;4.15;2.90;;;;;;;34.36;29.80;93209.53;5042671;28;20141;-43
2022/09/10 11:44:35;;;;;;;3.25;2.67;;;;;;;33.67;31.16;93211.50;5059729;28;20037;-42
2022/09/10 11:47:21;;;;;;;6.07;3.38;;;;;;;32.84;33.46;93210.97;5049208;28;20040;-43
2022/09/10 11:49:54;;;;;;;3.10;2.80;;;;;;;32.27;34.36;93214.06;5041100;28;20036;-43
2022/09/10 11:52:21;;;;;;;6.40;3.15;;;;;;;31.75;35.61;93217.78;5046562;28;20039;-43
2022/09/10 11:54:46;;;;;;;3.97;3.55;;;;;;;31.46;36.48;93206.72;5059778;28;20037;-42
2022/09/10 11:57:30;;;;;;;4.53;3.13;;;;;;;30.73;38.12;93203.53;5042137;28;20021;-42
2022/09/10 12:00:10;;;;;;;3.72;3.40;;;;;;;30.25;38.41;93199.19;5049313;28;20032;-42
2022/09/10 12:02:42;;;;;;;4.00;3.42;;;;;;;29.88;39.23;93190.00;5046072;28;20089;-43
2022/09/10 12:05:29;;;;;;;5.60;3.20;;;;;;;29.46;41.42;93188.44;5066672;28;20052;-44
2022/09/10 12:08:09;;;;;;;4.72;3.05;;;;;;;29.18;40.79;93185.75;5067411;28;20031;-42
2022/09/10 12:10:53;;;;;;;4.75;3.72;;;;;;;28.96;41.46;93179.56;5060686;28;20130;-42
2022/09/10 12:13:19;;;;;;;8.15;3.30;;;;;;;28.69;42.30;93166.94;5047017;28;20039;-42
2022/09/10 12:15:56;;;;;;;4.55;3.30;;;;;;;28.47;42.87;93172.81;5047572;28;20032;-42
2022/09/10 12:18:27;;;;;;;5.22;3.00;;;;;;;28.41;43.87;93160.59;5062103;28;20032;-43
2022/09/10 12:20:56;;;;;;;2.90;2.70;;;;;;;28.26;42.81;93153.84;5070923;28;20071;-43